createdAt,value
2022-09-17T00:01:33.191Z,10.50
2022-09-17T00:04:04.286Z,10.50
2022-09-17T00:06:35.891Z,10.50
2022-09-17T00:09:05.198Z,10.50
2022-09-17T00:11:36.299Z,10.40
2022-09-17T00:14:07.061Z,10.40
2022-09-17T00:16:37.611Z,10.40
2022-09-17T00:19:06.996Z,10.40
2022-09-17T00:21:36.909Z,10.40
2022-09-17T00:24:06.646Z,10.40
2022-09-17T00:26:36.960Z,10.40
2022-09-17T00:29:05.633Z,10.40
2022-09-17T00:31:34.545Z,10.30
2022-09-17T00:34:03.860Z,10.40
2022-09-17T00:36:32.347Z,10.30
2022-09-17T00:39:01.901Z,10.30
2022-09-17T00:41:33.154Z,10.20
2022-09-17T00:44:02.812Z,10.30
2022-09-17T00:46:34.463Z,10.20
2022-09-17T00:49:05.419Z,10.30
2022-09-17T00:51:37.487Z,10.30
2022-09-17T00:54:09.661Z,10.40
2022-09-17T00:56:40.806Z,10.30
2022-09-17T00:59:09.075Z,10.30
2022-09-17T01:01:39.001Z,10.30
2022-09-17T01:04:07.476Z,10.30
2022-09-17T01:06:40.392Z,10.30
2022-09-17T01:09:25.563Z,10.30
2022-09-17T01:12:31.130Z,10.20
2022-09-17T01:15:11.177Z,10.20
2022-09-17T01:17:44.679Z,10.20
2022-09-17T01:20:47.829Z,10.20
2022-09-17T01:23:40.852Z,10.20
2022-09-17T01:26:32.812Z,10.20
2022-09-17T01:29:12.733Z,10.10
2022-09-17T01:31:52.079Z,10.10
2022-09-17T01:34:27.507Z,10.10
2022-09-17T01:37:08.939Z,10.10
2022-09-17T01:39:45.244Z,10.20
2022-09-17T01:42:20.950Z,10.20
2022-09-17T01:44:57.560Z,10.20
2022-09-17T01:47:32.755Z,10.30
2022-09-17T01:50:05.127Z,10.40
2022-09-17T01:52:35.425Z,10.40
2022-09-17T01:55:07.050Z,10.40
2022-09-17T01:57:41.150Z,10.40
2022-09-17T02:00:12.529Z,10.50
2022-09-17T02:02:46.252Z,10.40
2022-09-17T02:05:19.428Z,10.40
2022-09-17T02:07:52.046Z,10.40
2022-09-17T02:10:23.326Z,10.30
2022-09-17T02:12:58.957Z,10.30
2022-09-17T02:15:32.273Z,10.30
2022-09-17T02:18:07.882Z,10.30
2022-09-17T02:20:41.890Z,10.30
2022-09-17T02:23:16.584Z,10.30
2022-09-17T02:25:50.884Z,10.40
2022-09-17T02:28:25.372Z,10.40
2022-09-17T02:30:53.442Z,10.40
2022-09-17T02:33:24.285Z,10.40
2022-09-17T02:35:52.350Z,10.40
2022-09-17T02:38:25.561Z,10.50
2022-09-17T02:40:59.525Z,10.40
2022-09-17T02:43:34.998Z,10.40
2022-09-17T02:46:17.781Z,10.40
2022-09-17T02:49:31.271Z,10.40
2022-09-17T02:52:07.973Z,10.50
2022-09-17T02:54:42.538Z,10.60
2022-09-17T02:57:21.262Z,10.50
2022-09-17T02:59:57.856Z,10.50
2022-09-17T03:02:31.683Z,10.50
2022-09-17T03:05:03.355Z,10.60
2022-09-17T03:07:32.613Z,10.60
2022-09-17T03:10:00.675Z,10.60
2022-09-17T03:12:29.167Z,10.70
2022-09-17T03:14:57.166Z,10.70
2022-09-17T03:17:25.205Z,10.70
2022-09-17T03:19:53.651Z,10.70
2022-09-17T03:22:23.082Z,10.60
2022-09-17T03:24:51.311Z,10.60
2022-09-17T03:27:20.008Z,10.50
2022-09-17T03:29:47.975Z,10.50
2022-09-17T03:32:16.025Z,10.40
2022-09-17T03:34:44.088Z,10.40
2022-09-17T03:37:12.049Z,10.40
2022-09-17T03:39:41.508Z,10.30
2022-09-17T03:42:09.547Z,10.30
2022-09-17T03:44:37.509Z,10.20
2022-09-17T03:47:05.979Z,10.20
2022-09-17T03:49:33.972Z,10.20
2022-09-17T03:52:02.302Z,10.10
2022-09-17T03:54:30.356Z,10.10
2022-09-17T03:56:59.928Z,10.10
2022-09-17T03:59:29.702Z,10.00
2022-09-17T04:01:57.860Z,10.00
2022-09-17T04:04:26.186Z,9.90
2022-09-17T04:06:54.548Z,9.90
2022-09-17T04:09:22.544Z,9.90
2022-09-17T04:11:50.560Z,9.90
2022-09-17T04:14:19.861Z,9.90
2022-09-17T04:16:47.865Z,9.80
2022-09-17T04:19:15.901Z,9.80
2022-09-17T04:21:43.859Z,9.90
2022-09-17T04:24:11.867Z,9.80
2022-09-17T04:26:39.815Z,9.90
2022-09-17T04:29:07.988Z,9.80
2022-09-17T04:31:37.422Z,9.90
2022-09-17T04:34:05.665Z,9.80
2022-09-17T04:36:33.694Z,9.80
2022-09-17T04:39:01.672Z,9.80
2022-09-17T04:41:29.705Z,9.70
2022-09-17T04:43:57.741Z,9.80
2022-09-17T04:46:25.845Z,9.80
2022-09-17T04:48:55.237Z,9.80
2022-09-17T04:51:23.251Z,9.80
2022-09-17T04:53:51.328Z,9.80
2022-09-17T04:56:19.311Z,9.70
2022-09-17T04:58:47.364Z,9.70
2022-09-17T05:01:18.626Z,9.70
2022-09-17T05:03:47.195Z,9.80
2022-09-17T05:06:16.587Z,9.80
2022-09-17T05:08:44.605Z,9.90
2022-09-17T05:11:13.622Z,9.90
2022-09-17T05:13:41.698Z,10.00
2022-09-17T05:16:10.335Z,10.00
2022-09-17T05:18:38.379Z,10.10
2022-09-17T05:21:06.791Z,10.00
2022-09-17T05:23:36.143Z,10.10
2022-09-17T05:26:04.185Z,10.10
2022-09-17T05:28:32.194Z,10.10
2022-09-17T05:31:00.997Z,10.20
2022-09-17T05:33:29.192Z,10.20
2022-09-17T05:35:57.208Z,10.20
2022-09-17T05:38:25.286Z,10.30
2022-09-17T05:40:54.732Z,10.30
2022-09-17T05:43:22.740Z,10.30
2022-09-17T05:45:50.760Z,10.40
2022-09-17T05:48:18.756Z,10.50
2022-09-17T05:50:47.040Z,10.50
2022-09-17T05:53:15.415Z,10.50
2022-09-17T05:55:43.615Z,10.50
2022-09-17T05:58:14.057Z,10.50
2022-09-17T06:00:42.651Z,10.40
2022-09-17T06:03:12.412Z,10.40
2022-09-17T06:05:40.835Z,10.40
2022-09-17T06:08:09.326Z,10.40
2022-09-17T06:10:37.538Z,10.40
2022-09-17T06:13:05.944Z,10.40
2022-09-17T06:15:35.508Z,10.40
2022-09-17T06:18:03.531Z,10.40
2022-09-17T06:20:31.533Z,10.40
2022-09-17T06:23:00.034Z,10.40
2022-09-17T06:25:29.467Z,10.50
2022-09-17T06:27:57.471Z,10.50
2022-09-17T06:30:25.531Z,10.50
2022-09-17T06:32:54.856Z,10.50
2022-09-17T06:35:22.876Z,10.60
2022-09-17T06:37:50.858Z,10.80
2022-09-17T06:40:18.894Z,10.90
2022-09-17T06:42:59.640Z,11.00
2022-09-17T06:45:29.272Z,11.20
2022-09-17T06:47:58.638Z,11.30
2022-09-17T06:50:26.669Z,11.50
2022-09-17T06:52:55.722Z,11.60
2022-09-17T06:55:24.066Z,11.90
2022-09-17T06:57:52.047Z,12.10
2022-09-17T07:00:20.189Z,12.10
2022-09-17T07:02:58.262Z,12.10
2022-09-17T07:05:27.314Z,12.20
2022-09-17T07:07:55.923Z,12.30
2022-09-17T07:10:24.398Z,12.30
2022-09-17T07:12:52.432Z,12.40
2022-09-17T07:15:20.422Z,12.40
2022-09-17T07:17:48.449Z,12.40
2022-09-17T07:20:18.144Z,12.30
2022-09-17T07:22:46.156Z,12.50
2022-09-17T07:25:15.884Z,12.80
2022-09-17T07:27:43.863Z,13.20
2022-09-17T07:30:13.307Z,13.40
2022-09-17T07:32:41.374Z,13.40
2022-09-17T07:35:09.864Z,13.30
2022-09-17T07:37:39.939Z,13.50
2022-09-17T07:40:09.244Z,13.60
2022-09-17T07:42:38.407Z,13.60
2022-09-17T07:45:07.341Z,13.60
2022-09-17T07:47:40.953Z,13.60
2022-09-17T07:50:10.175Z,13.50
2022-09-17T07:52:39.555Z,13.60
2022-09-17T07:55:08.341Z,13.90
2022-09-17T07:57:36.758Z,13.90
2022-09-17T08:00:05.831Z,13.90
2022-09-17T08:02:39.595Z,13.90
2022-09-17T08:05:08.094Z,13.90
2022-09-17T08:07:36.177Z,14.00
2022-09-17T08:10:06.305Z,13.90
2022-09-17T08:12:34.289Z,13.70
2022-09-17T08:15:02.292Z,13.70
2022-09-17T08:17:30.397Z,13.70
2022-09-17T08:19:58.627Z,13.90
2022-09-17T08:22:28.011Z,14.10
2022-09-17T08:24:56.012Z,14.00
2022-09-17T08:27:25.340Z,13.90
2022-09-17T08:29:53.380Z,13.70
2022-09-17T08:32:21.372Z,13.80
2022-09-17T08:34:49.361Z,13.90
2022-09-17T08:37:17.419Z,14.10
2022-09-17T08:39:45.837Z,14.30
2022-09-17T08:42:21.921Z,14.50
2022-09-17T08:44:53.680Z,14.50
2022-09-17T08:47:28.416Z,14.60
2022-09-17T08:49:58.758Z,14.60
2022-09-17T08:52:59.580Z,14.60
2022-09-17T08:55:37.163Z,14.60
2022-09-17T08:58:33.532Z,14.60
2022-09-17T09:01:17.479Z,14.80
2022-09-17T09:04:00.211Z,15.10
2022-09-17T09:06:32.118Z,15.30
2022-09-17T09:09:04.510Z,15.20
2022-09-17T09:11:33.837Z,15.40
2022-09-17T09:14:09.167Z,15.40
2022-09-17T09:16:42.138Z,15.50
2022-09-17T09:19:21.679Z,15.60
2022-09-17T09:22:20.194Z,15.60
2022-09-17T09:25:06.891Z,15.40
2022-09-17T09:27:42.463Z,15.40
2022-09-17T09:30:13.433Z,15.50
2022-09-17T09:32:54.451Z,15.70
2022-09-17T09:35:25.380Z,15.80
2022-09-17T09:38:00.966Z,15.80
2022-09-17T09:40:37.569Z,16.10
2022-09-17T09:43:16.629Z,16.30
2022-09-17T09:46:14.535Z,16.30
2022-09-17T09:48:53.904Z,16.20
2022-09-17T09:51:32.996Z,16.00
2022-09-17T09:54:15.427Z,15.80
2022-09-17T09:56:57.952Z,15.90
2022-09-17T09:59:26.089Z,16.30
2022-09-17T10:01:54.223Z,16.60
2022-09-17T10:04:25.857Z,16.90
2022-09-17T10:06:55.591Z,17.40
2022-09-17T10:09:24.087Z,17.40
2022-09-17T10:12:03.128Z,17.30
2022-09-17T10:14:32.888Z,17.70
2022-09-17T10:17:22.248Z,17.60
2022-09-17T10:20:22.911Z,18.40
2022-09-17T10:23:18.391Z,18.90
2022-09-17T10:25:46.759Z,20.50
2022-09-17T10:28:40.596Z,21.50
2022-09-17T10:31:10.749Z,19.90
2022-09-17T10:33:53.208Z,20.20
2022-09-17T10:36:39.488Z,21.40
2022-09-17T10:39:28.253Z,21.80
2022-09-17T10:41:57.752Z,22.60
2022-09-17T10:44:28.756Z,22.80
2022-09-17T10:47:04.067Z,22.60
2022-09-17T10:49:40.832Z,22.70
2022-09-17T10:52:15.802Z,22.40
2022-09-17T10:55:01.507Z,22.70
2022-09-17T10:57:44.077Z,23.10
2022-09-17T11:00:18.171Z,21.60
2022-09-17T11:03:18.691Z,20.80
2022-09-17T11:06:15.273Z,19.60
2022-09-17T11:08:57.496Z,18.30
2022-09-17T11:11:40.251Z,16.70
2022-09-17T11:14:21.685Z,15.80
2022-09-17T11:16:59.007Z,14.80
2022-09-17T11:19:39.396Z,14.30
2022-09-17T11:22:20.424Z,14.00
2022-09-17T11:25:16.499Z,14.10
2022-09-17T11:27:56.923Z,14.20
2022-09-17T11:30:27.165Z,15.10
2022-09-17T11:33:18.573Z,16.90
2022-09-17T11:35:49.708Z,18.40
2022-09-17T11:38:25.575Z,19.40
2022-09-17T11:41:05.307Z,20.80
2022-09-17T11:43:36.408Z,21.30
2022-09-17T11:46:09.757Z,21.40
2022-09-17T11:48:44.460Z,21.70
2022-09-17T11:51:24.499Z,22.00
2022-09-17T11:53:57.989Z,21.30
2022-09-17T11:56:34.325Z,21.90
2022-09-17T11:59:06.908Z,21.60
2022-09-17T12:01:40.352Z,22.60
2022-09-17T12:04:28.050Z,22.90
2022-09-17T12:07:02.424Z,23.30
2022-09-17T12:09:35.855Z,23.20
2022-09-17T12:12:26.277Z,22.90
2022-09-17T12:15:04.400Z,21.90
2022-09-17T12:17:40.162Z,20.30
2022-09-17T12:20:12.568Z,19.70
2022-09-17T12:22:43.992Z,18.50
2022-09-17T12:25:14.080Z,17.00
2022-09-17T12:27:53.032Z,16.10
2022-09-17T12:30:23.361Z,15.60
2022-09-17T12:33:09.415Z,15.40
2022-09-17T12:36:10.260Z,14.80
2022-09-17T12:39:03.635Z,15.00
2022-09-17T12:41:43.832Z,16.30
2022-09-17T12:44:35.534Z,17.10
2022-09-17T12:47:16.500Z,16.70
2022-09-17T12:50:04.504Z,16.10
2022-09-17T12:52:45.884Z,15.50
2022-09-17T12:55:26.953Z,15.60
2022-09-17T12:58:04.070Z,16.80
2022-09-17T13:00:37.745Z,18.20
2022-09-17T13:03:15.202Z,18.90
2022-09-17T13:06:06.512Z,19.50
2022-09-17T13:09:04.726Z,19.90
2022-09-17T13:11:51.163Z,20.30
2022-09-17T13:14:27.325Z,20.60
2022-09-17T13:17:01.564Z,20.70
2022-09-17T13:19:39.284Z,20.70
2022-09-17T13:22:11.031Z,20.40
2022-09-17T13:24:39.298Z,19.70
2022-09-17T13:27:19.884Z,19.70
2022-09-17T13:30:01.967Z,20.10
2022-09-17T13:32:52.070Z,20.00
2022-09-17T13:35:47.908Z,19.50
2022-09-17T13:38:20.169Z,19.00
2022-09-17T13:40:51.400Z,19.00
2022-09-17T13:43:26.538Z,18.60
2022-09-17T13:46:25.217Z,18.10
2022-09-17T13:49:00.516Z,17.40
2022-09-17T13:51:51.115Z,17.00
2022-09-17T13:54:21.387Z,16.10
2022-09-17T13:57:03.807Z,15.90
2022-09-17T13:59:31.970Z,15.80
2022-09-17T14:02:03.441Z,15.70
2022-09-17T14:04:47.956Z,15.60
2022-09-17T14:07:36.418Z,15.60
2022-09-17T14:10:41.718Z,15.60
2022-09-17T14:13:39.712Z,16.20
2022-09-17T14:16:35.488Z,16.40
2022-09-17T14:19:07.012Z,16.60
2022-09-17T14:21:36.654Z,16.50
2022-09-17T14:24:20.253Z,16.30
2022-09-17T14:27:11.840Z,16.10
2022-09-17T14:30:01.841Z,16.00
2022-09-17T14:32:33.517Z,16.40
2022-09-17T14:35:03.595Z,16.80
2022-09-17T14:37:41.454Z,17.00
2022-09-17T14:40:10.855Z,17.10
2022-09-17T14:42:40.247Z,17.00
2022-09-17T14:45:17.921Z,16.90
2022-09-17T14:47:45.910Z,16.80
2022-09-17T14:50:22.604Z,16.70
2022-09-17T14:52:53.597Z,16.50
2022-09-17T14:55:24.043Z,16.40
2022-09-17T14:57:55.040Z,16.40
2022-09-17T15:00:25.459Z,16.40
2022-09-17T15:02:59.377Z,16.50
2022-09-17T15:05:31.624Z,16.50
2022-09-17T15:08:15.524Z,16.40
2022-09-17T15:10:49.638Z,16.80
2022-09-17T15:13:20.139Z,17.10
2022-09-17T15:15:58.996Z,17.40
2022-09-17T15:18:34.772Z,17.20
2022-09-17T15:21:07.034Z,17.00
2022-09-17T15:23:37.753Z,16.80
2022-09-17T15:26:06.419Z,16.70
2022-09-17T15:28:37.851Z,16.60
2022-09-17T15:31:08.170Z,16.30
2022-09-17T15:33:36.570Z,16.30
2022-09-17T15:36:17.128Z,16.40
2022-09-17T15:38:46.713Z,16.60
2022-09-17T15:41:25.124Z,16.50
2022-09-17T15:43:54.773Z,16.30
2022-09-17T15:46:32.557Z,16.30
2022-09-17T15:49:02.297Z,16.40
2022-09-17T15:51:32.534Z,16.60
2022-09-17T15:54:04.873Z,16.50
2022-09-17T15:56:34.472Z,16.30
2022-09-17T15:59:04.756Z,16.20
2022-09-17T16:01:54.966Z,15.90
2022-09-17T16:04:31.778Z,15.70
2022-09-17T16:07:02.165Z,15.60
2022-09-17T16:09:55.156Z,15.70
2022-09-17T16:12:24.439Z,15.90
2022-09-17T16:14:54.938Z,15.80
2022-09-17T16:17:36.455Z,15.70
2022-09-17T16:20:10.811Z,15.60
2022-09-17T16:22:38.771Z,15.40
2022-09-17T16:25:09.328Z,15.20
2022-09-17T16:27:45.970Z,15.20
2022-09-17T16:30:17.503Z,15.10
2022-09-17T16:32:45.838Z,15.10
2022-09-17T16:35:17.242Z,15.10
2022-09-17T16:37:46.008Z,14.90
2022-09-17T16:40:15.653Z,14.80
2022-09-17T16:42:43.779Z,14.70
2022-09-17T16:45:12.172Z,14.60
2022-09-17T16:47:42.173Z,14.50
2022-09-17T16:50:12.894Z,14.50
2022-09-17T16:52:40.956Z,14.40
2022-09-17T16:55:12.178Z,14.30
2022-09-17T16:57:41.952Z,14.30
2022-09-17T17:00:14.554Z,14.30
2022-09-17T17:02:43.600Z,14.20
2022-09-17T17:05:12.057Z,14.10
2022-09-17T17:07:40.132Z,14.00
2022-09-17T17:10:09.944Z,14.00
2022-09-17T17:12:38.632Z,13.90
2022-09-17T17:15:09.217Z,13.80
2022-09-17T17:17:37.763Z,13.80
2022-09-17T17:20:08.200Z,13.70
2022-09-17T17:22:36.940Z,13.70
2022-09-17T17:25:05.843Z,13.60
2022-09-17T17:27:34.159Z,13.60
2022-09-17T17:30:05.464Z,13.50
2022-09-17T17:32:35.148Z,13.50
2022-09-17T17:35:03.428Z,13.50
2022-09-17T17:37:31.409Z,13.50
2022-09-17T17:39:59.664Z,13.60
2022-09-17T17:42:27.693Z,13.50
2022-09-17T17:44:55.703Z,13.60
2022-09-17T17:47:23.715Z,13.60
2022-09-17T17:49:53.774Z,13.60
2022-09-17T17:52:22.025Z,13.60
2022-09-17T17:54:50.140Z,13.70
2022-09-17T17:57:18.152Z,13.70
2022-09-17T17:59:46.184Z,13.60
2022-09-17T18:02:14.360Z,13.60
2022-09-17T18:04:42.491Z,13.50
2022-09-17T18:07:11.807Z,13.40
2022-09-17T18:09:39.832Z,13.30
2022-09-17T18:12:08.402Z,13.30
2022-09-17T18:14:36.392Z,13.30
2022-09-17T18:17:04.410Z,13.20
2022-09-17T18:19:32.469Z,13.20
2022-09-17T18:22:00.459Z,13.30
2022-09-17T18:24:29.786Z,13.30
2022-09-17T18:26:57.786Z,13.30
2022-09-17T18:29:25.827Z,13.40
2022-09-17T18:31:53.834Z,13.40
2022-09-17T18:34:21.961Z,13.40
2022-09-17T18:36:51.362Z,13.50
2022-09-17T18:39:56.782Z,13.50
2022-09-17T18:42:10.877Z,13.50
2022-09-17T18:44:38.890Z,13.50
2022-09-17T18:47:07.051Z,13.50
2022-09-17T18:49:35.102Z,13.60
2022-09-17T18:52:03.603Z,13.60
2022-09-17T18:54:31.644Z,13.60
2022-09-17T18:56:59.608Z,13.60
2022-09-17T18:59:28.968Z,13.60
2022-09-17T19:01:57.006Z,13.60
2022-09-17T19:04:25.037Z,13.60
2022-09-17T19:06:53.092Z,13.60
2022-09-17T19:09:21.092Z,13.60
2022-09-17T19:11:49.157Z,13.60
2022-09-17T19:14:17.122Z,13.60
2022-09-17T19:16:46.504Z,13.50
2022-09-17T19:19:14.527Z,13.50
2022-09-17T19:21:42.534Z,13.40
2022-09-17T19:24:10.567Z,13.40
2022-09-17T19:26:39.382Z,13.40
2022-09-17T19:29:08.987Z,13.40
2022-09-17T19:31:37.083Z,13.30
2022-09-17T19:34:07.041Z,13.40
2022-09-17T19:36:35.207Z,13.20
2022-09-17T19:39:03.248Z,13.20
2022-09-17T19:41:33.251Z,13.20
2022-09-17T19:44:01.294Z,13.20
2022-09-17T19:46:30.204Z,13.20
2022-09-17T19:49:00.456Z,13.10
2022-09-17T19:51:30.968Z,13.10
2022-09-17T19:53:59.459Z,13.00
2022-09-17T19:56:28.479Z,13.00
2022-09-17T19:58:56.634Z,13.00
2022-09-17T20:01:24.742Z,13.00
2022-09-17T20:03:53.230Z,13.00
2022-09-17T20:06:23.309Z,13.00
2022-09-17T20:08:55.214Z,13.00
2022-09-17T20:11:25.027Z,13.00
2022-09-17T20:13:58.150Z,13.00
2022-09-17T20:16:27.165Z,13.00
2022-09-17T20:18:55.314Z,12.90
2022-09-17T20:21:25.440Z,12.90
2022-09-17T20:23:55.210Z,12.90
2022-09-17T20:26:23.721Z,12.90
2022-09-17T20:28:53.188Z,12.90
2022-09-17T20:31:22.928Z,12.80
2022-09-17T20:33:54.087Z,12.80
2022-09-17T20:36:24.251Z,12.70
2022-09-17T20:41:43.037Z,12.60
2022-09-17T20:44:11.070Z,12.60
2022-09-17T20:46:39.162Z,12.60
2022-09-17T20:49:07.388Z,12.60
2022-09-17T20:51:35.444Z,12.60
2022-09-17T20:54:05.311Z,12.50
2022-09-17T20:56:34.720Z,12.60
2022-09-17T20:59:08.865Z,12.50
2022-09-17T21:01:37.643Z,12.50
2022-09-17T21:04:08.012Z,12.40
2022-09-17T21:06:38.730Z,12.40
2022-09-17T21:09:10.294Z,12.30
2022-09-17T21:11:38.784Z,12.30
2022-09-17T21:14:07.159Z,12.30
2022-09-17T21:16:35.647Z,12.30
2022-09-17T21:19:06.246Z,12.20
2022-09-17T21:21:34.597Z,12.20
2022-09-17T21:24:03.854Z,12.10
2022-09-17T21:26:34.375Z,12.10
2022-09-17T21:29:02.908Z,12.00
2022-09-17T21:31:33.478Z,11.90
2022-09-17T21:34:03.228Z,11.90
2022-09-17T21:36:33.242Z,11.90
2022-09-17T21:39:03.302Z,11.80
2022-09-17T21:41:33.333Z,11.70
2022-09-17T21:44:01.383Z,11.70
2022-09-17T21:46:33.130Z,11.60
2022-09-17T21:49:03.042Z,11.60
2022-09-17T21:51:33.839Z,11.60
2022-09-17T21:54:03.249Z,11.50
2022-09-17T21:56:33.281Z,11.50
2022-09-17T21:59:03.033Z,11.50
2022-09-17T22:01:32.888Z,11.60
2022-09-17T22:04:02.348Z,11.50
2022-09-17T22:06:32.004Z,11.50
2022-09-17T22:09:01.948Z,11.50
2022-09-17T22:11:31.873Z,11.50
2022-09-17T22:14:04.966Z,11.50
2022-09-17T22:16:35.956Z,11.60
2022-09-17T22:19:05.359Z,11.50
2022-09-17T22:21:36.051Z,11.50
2022-09-17T22:24:05.490Z,11.50
2022-09-17T22:26:36.150Z,11.50
2022-09-17T22:29:07.608Z,11.50
2022-09-17T22:31:35.923Z,11.60
2022-09-17T22:34:07.782Z,11.60
2022-09-17T22:36:36.116Z,11.70
2022-09-17T22:39:05.438Z,11.70
2022-09-17T22:41:35.943Z,11.70
2022-09-17T22:44:07.112Z,11.70
2022-09-17T22:46:36.629Z,11.70
2022-09-17T22:49:04.743Z,11.70
2022-09-17T22:51:33.104Z,11.70
2022-09-17T22:54:01.265Z,11.70
2022-09-17T22:56:30.384Z,11.70
2022-09-17T22:58:59.001Z,11.70
2022-09-17T23:01:31.154Z,11.70
2022-09-17T23:04:00.504Z,11.70
2022-09-17T23:06:30.948Z,11.80
2022-09-17T23:09:00.071Z,11.80
2022-09-17T23:11:30.564Z,11.70
2022-09-17T23:14:02.026Z,11.70
2022-09-17T23:16:35.305Z,11.70
2022-09-17T23:19:03.338Z,11.80
2022-09-17T23:21:31.419Z,11.80
2022-09-17T23:23:59.614Z,11.80
2022-09-17T23:26:28.616Z,11.80
2022-09-17T23:29:01.173Z,11.80
2022-09-17T23:31:34.709Z,11.90
2022-09-17T23:34:03.274Z,11.90
2022-09-17T23:36:32.986Z,11.80
2022-09-17T23:39:02.132Z,11.80
2022-09-17T23:41:32.382Z,11.70
2022-09-17T23:44:02.929Z,11.80
2022-09-17T23:46:33.780Z,11.80
2022-09-17T23:49:02.014Z,11.80
2022-09-17T23:51:31.621Z,11.90
2022-09-17T23:54:00.262Z,11.80
2022-09-17T23:56:29.393Z,11.80
2022-09-17T23:59:00.460Z,11.80
